Time;durP1;ratioP1;P1;durP2;ratioP2;P2;SDS_P1;SDS_P2;PMS_P1;PMS_P2;Temp;Humidity;BMP_temperature;BMP_pressure;BME280_temperature;BME280_humidity;BME280_pressure;Samples;Min_cycle;Max_cycle;Signal;HPM_P1;HPM_P2
2024/01/22 00:00:49;;;;;;;10.25;9.75;;;;;;;;;;5073682;28;20082;-60
2024/01/22 00:03:16;;;;;;;11.15;10.60;;;;;;;;;;5070414;28;20081;-61
2024/01/22 00:05:41;;;;;;;10.77;10.27;;;;;;;;;;5073835;28;20041;-61
2024/01/22 00:08:06;;;;;;;10.82;10.32;;;;;;;;;;5049409;28;20795;-62
2024/01/22 00:10:32;;;;;;;10.90;10.40;;;;;;;;;;5078453;28;20024;-61
2024/01/22 00:12:57;;;;;;;10.85;10.35;;;;;;;;;;5073360;28;20039;-61
2024/01/22 00:15:22;;;;;;;10.70;10.20;;;;;;;;;;5067417;28;20032;-60
2024/01/22 00:17:48;;;;;;;11.30;10.70;;;;;;;;;;5064015;28;20382;-62
2024/01/22 00:20:13;;;;;;;9.88;9.48;;;;;;;;;;5081977;28;20023;-63
2024/01/22 00:22:39;;;;;;;10.13;9.63;;;;;;;;;;5060730;28;20070;-61
2024/01/22 00:25:04;;;;;;;10.13;9.63;;;;;;;;;;5070084;28;20020;-61
2024/01/22 00:27:29;;;;;;;11.07;10.57;;;;;;;;;;5070994;28;20013;-61
2024/01/22 00:29:55;;;;;;;10.45;9.95;;;;;;;;;;5052905;28;20021;-63
2024/01/22 00:32:20;;;;;;;10.88;10.38;;;;;;;;;;5071628;28;20508;-62
2024/01/22 00:34:45;;;;;;;10.55;10.05;;;;;;;;;;5077497;28;20808;-61
2024/01/22 00:37:11;;;;;;;10.55;10.05;;;;;;;;;;5076440;28;20028;-60
2024/01/22 00:39:36;;;;;;;11.50;10.90;;;;;;;;;;5071962;28;20078;-61
2024/01/22 00:42:02;;;;;;;10.27;9.77;;;;;;;;;;5072675;28;20021;-62
2024/01/22 00:44:27;;;;;;;10.73;10.23;;;;;;;;;;5069614;28;20032;-61
2024/01/22 00:46:52;;;;;;;10.77;10.27;;;;;;;;;;5072190;28;20024;-62
2024/01/22 00:49:18;;;;;;;10.60;10.10;;;;;;;;;;5062451;28;20028;-60
2024/01/22 00:51:43;;;;;;;10.38;9.88;;;;;;;;;;5075700;28;20038;-61
2024/01/22 00:54:08;;;;;;;10.57;10.07;;;;;;;;;;5073035;28;20339;-61
2024/01/22 00:56:34;;;;;;;10.68;10.15;;;;;;;;;;5080036;28;20028;-61
2024/01/22 00:58:59;;;;;;;10.40;9.90;;;;;;;;;;5074796;28;20027;-61
2024/01/22 01:01:24;;;;;;;10.23;9.73;;;;;;;;;;5074206;28;20283;-61
2024/01/22 01:03:50;;;;;;;10.50;10.00;;;;;;;;;;5051845;28;20024;-61
2024/01/22 01:06:15;;;;;;;10.50;10.00;;;;;;;;;;5066959;28;20033;-61
2024/01/22 01:08:40;;;;;;;10.43;9.93;;;;;;;;;;5070380;28;20022;-61
2024/01/22 01:11:06;;;;;;;11.73;11.13;;;;;;;;;;5047070;28;20024;-61
2024/01/22 01:13:31;;;;;;;10.80;10.30;;;;;;;;;;5070029;28;20359;-61
2024/01/22 01:15:57;;;;;;;10.35;9.85;;;;;;;;;;5075713;28;20028;-61
2024/01/22 01:18:22;;;;;;;11.10;10.52;;;;;;;;;;5070024;28;20083;-61
2024/01/22 01:20:48;;;;;;;10.27;9.77;;;;;;;;;;5073996;28;20078;-61
2024/01/22 01:23:13;;;;;;;10.35;9.85;;;;;;;;;;5075498;28;20020;-62
2024/01/22 01:25:38;;;;;;;10.45;9.95;;;;;;;;;;5074256;28;20020;-61
2024/01/22 01:28:04;;;;;;;10.40;9.90;;;;;;;;;;5055871;28;20032;-61
2024/01/22 01:30:29;;;;;;;11.13;10.52;;;;;;;;;;5073926;28;20024;-61
2024/01/22 01:32:54;;;;;;;10.90;10.40;;;;;;;;;;5064496;28;20029;-60
2024/01/22 01:35:20;;;;;;;10.77;10.25;;;;;;;;;;5071370;28;20937;-61
2024/01/22 01:37:45;;;;;;;10.75;10.25;;;;;;;;;;5077988;28;20036;-63
2024/01/22 01:40:11;;;;;;;10.40;9.90;;;;;;;;;;5072683;28;20020;-62
2024/01/22 01:42:36;;;;;;;10.25;9.75;;;;;;;;;;5074349;28;20571;-62
2024/01/22 01:45:01;;;;;;;10.15;9.65;;;;;;;;;;5070511;28;20016;-63
2024/01/22 01:47:27;;;;;;;10.52;10.02;;;;;;;;;;5067983;28;20040;-61
2024/01/22 01:49:52;;;;;;;10.07;9.57;;;;;;;;;;5086225;28;20028;-60
2024/01/22 01:52:19;;;;;;;11.13;10.52;;;;;;;;;;5063357;28;20025;-61
2024/01/22 01:54:45;;;;;;;11.48;10.88;;;;;;;;;;5052870;28;20024;-61
2024/01/22 01:57:10;;;;;;;11.05;10.55;;;;;;;;;;5073872;28;20017;-61
2024/01/22 01:59:37;;;;;;;10.75;10.25;;;;;;;;;;5065199;28;20013;-61
2024/01/22 02:02:02;;;;;;;10.90;10.40;;;;;;;;;;5071773;28;20024;-61
2024/01/22 02:04:28;;;;;;;11.48;10.90;;;;;;;;;;5066223;28;20042;-61
2024/01/22 02:06:54;;;;;;;11.40;10.80;;;;;;;;;;5065431;28;20030;-61
2024/01/22 02:09:19;;;;;;;11.93;11.32;;;;;;;;;;5069049;28;20594;-59
2024/01/22 02:11:44;;;;;;;11.45;10.90;;;;;;;;;;5074314;28;20459;-61
2024/01/22 02:14:10;;;;;;;11.00;10.50;;;;;;;;;;5076979;28;20086;-61
2024/01/22 02:16:35;;;;;;;11.57;10.98;;;;;;;;;;5072128;28;20106;-61
2024/01/22 02:19:00;;;;;;;11.60;11.00;;;;;;;;;;5061466;28;20417;-61
2024/01/22 02:21:25;;;;;;;10.75;10.25;;;;;;;;;;5065891;28;20536;-61
2024/01/22 02:23:51;;;;;;;11.63;11.02;;;;;;;;;;5067362;28;20481;-61
2024/01/22 02:26:16;;;;;;;11.65;11.05;;;;;;;;;;5064378;28;20047;-61
2024/01/22 02:28:41;;;;;;;11.70;11.10;;;;;;;;;;5062159;28;20111;-61
2024/01/22 02:31:08;;;;;;;11.30;10.70;;;;;;;;;;5066543;28;20040;-61
2024/01/22 02:33:34;;;;;;;11.68;11.10;;;;;;;;;;5072162;28;20091;-61
2024/01/22 02:35:59;;;;;;;10.90;10.40;;;;;;;;;;5066043;28;20112;-60
2024/01/22 02:38:24;;;;;;;11.32;10.82;;;;;;;;;;5067440;28;20024;-62
2024/01/22 02:40:51;;;;;;;11.55;10.95;;;;;;;;;;5067356;28;20098;-61
2024/01/22 02:43:17;;;;;;;11.25;10.75;;;;;;;;;;5067296;28;20017;-62
2024/01/22 02:45:42;;;;;;;12.82;12.13;;;;;;;;;;5066234;28;20077;-61
2024/01/22 02:48:07;;;;;;;12.40;11.80;;;;;;;;;;5068396;28;20035;-61
2024/01/22 02:50:33;;;;;;;11.63;11.02;;;;;;;;;;5067537;28;20060;-61
2024/01/22 02:52:58;;;;;;;11.88;11.27;;;;;;;;;;5053187;28;20032;-61
2024/01/22 02:55:23;;;;;;;11.70;11.10;;;;;;;;;;5062095;28;20027;-62
2024/01/22 02:57:49;;;;;;;11.88;11.27;;;;;;;;;;5049052;28;20020;-62
2024/01/22 03:00:14;;;;;;;11.70;11.10;;;;;;;;;;5060855;28;20044;-62
2024/01/22 03:02:39;;;;;;;11.10;10.60;;;;;;;;;;5067434;28;20391;-62
2024/01/22 03:05:05;;;;;;;11.50;10.90;;;;;;;;;;5058973;28;20037;-62
2024/01/22 03:07:30;;;;;;;11.70;11.10;;;;;;;;;;5059609;28;20030;-62
2024/01/22 03:09:56;;;;;;;10.93;10.43;;;;;;;;;;5076409;28;20370;-62
2024/01/22 03:12:21;;;;;;;11.10;10.60;;;;;;;;;;5071587;28;20123;-62
2024/01/22 03:14:46;;;;;;;12.27;11.68;;;;;;;;;;5073895;28;20066;-61
2024/01/22 03:17:12;;;;;;;12.13;11.50;;;;;;;;;;5067958;28;20028;-62
2024/01/22 03:19:37;;;;;;;12.10;11.50;;;;;;;;;;5065707;28;20644;-63
2024/01/22 03:22:02;;;;;;;11.80;11.20;;;;;;;;;;5072885;28;20013;-63
2024/01/22 03:24:28;;;;;;;11.80;11.20;;;;;;;;;;5059480;28;20046;-62
2024/01/22 03:26:53;;;;;;;12.85;12.15;;;;;;;;;;5075253;28;20024;-63
2024/01/22 03:29:19;;;;;;;11.40;10.90;;;;;;;;;;5068099;28;20027;-61
2024/01/22 03:31:44;;;;;;;11.48;10.98;;;;;;;;;;5061924;28;20025;-61
2024/01/22 03:34:09;;;;;;;11.82;11.23;;;;;;;;;;5079105;28;20028;-61
2024/01/22 03:36:35;;;;;;;11.38;10.88;;;;;;;;;;5070020;28;20070;-61
2024/01/22 03:39:00;;;;;;;12.10;11.50;;;;;;;;;;5065340;28;20100;-63
2024/01/22 03:41:26;;;;;;;11.65;11.05;;;;;;;;;;5069640;28;20017;-62
2024/01/22 03:43:51;;;;;;;12.13;11.52;;;;;;;;;;5062031;28;20109;-63
2024/01/22 03:46:17;;;;;;;12.00;11.40;;;;;;;;;;5068604;28;20044;-62
2024/01/22 03:48:42;;;;;;;11.77;11.18;;;;;;;;;;5045952;28;20035;-62
2024/01/22 03:51:08;;;;;;;11.65;11.05;;;;;;;;;;5059610;28;20732;-62
2024/01/22 03:53:34;;;;;;;11.30;10.70;;;;;;;;;;5064681;28;20017;-61
2024/01/22 03:56:02;;;;;;;11.52;10.95;;;;;;;;;;5069976;28;20501;-62
2024/01/22 03:58:28;;;;;;;11.95;11.35;;;;;;;;;;5075169;28;20497;-62
2024/01/22 04:00:53;;;;;;;11.82;11.23;;;;;;;;;;5069227;28;20021;-62
2024/01/22 04:03:18;;;;;;;11.68;11.07;;;;;;;;;;5065249;28;20467;-62
2024/01/22 04:05:44;;;;;;;12.05;11.45;;;;;;;;;;5069657;28;20064;-62
2024/01/22 04:08:09;;;;;;;12.13;11.52;;;;;;;;;;5074942;28;20103;-62
2024/01/22 04:10:34;;;;;;;12.15;11.55;;;;;;;;;;5062084;28;20486;-63
2024/01/22 04:13:00;;;;;;;12.77;12.07;;;;;;;;;;5075420;28;20024;-63
2024/01/22 04:15:25;;;;;;;12.40;11.80;;;;;;;;;;5065208;28;20043;-62
2024/01/22 04:17:51;;;;;;;12.40;11.80;;;;;;;;;;5068832;28;20017;-62
2024/01/22 04:20:16;;;;;;;13.23;12.52;;;;;;;;;;5062808;28;20102;-62
2024/01/22 04:22:41;;;;;;;13.25;12.55;;;;;;;;;;5062931;28;20075;-61
2024/01/22 04:25:07;;;;;;;12.98;12.30;;;;;;;;;;5059474;28;20029;-62
2024/01/22 04:27:32;;;;;;;12.07;11.48;;;;;;;;;;5071479;28;20051;-62
2024/01/22 04:29:57;;;;;;;12.48;11.85;;;;;;;;;;5061119;28;20037;-61
2024/01/22 04:32:23;;;;;;;11.98;11.38;;;;;;;;;;5066297;28;20482;-62
2024/01/22 04:34:50;;;;;;;13.35;12.65;;;;;;;;;;5067259;28;20421;-61
2024/01/22 04:37:16;;;;;;;12.93;12.23;;;;;;;;;;5063615;28;20112;-62
2024/01/22 04:39:41;;;;;;;14.02;13.23;;;;;;;;;;5077194;28;20020;-61
2024/01/22 04:42:07;;;;;;;15.00;14.10;;;;;;;;;;5074682;28;20028;-62
2024/01/22 04:44:32;;;;;;;14.23;13.43;;;;;;;;;;5082286;28;20048;-62
2024/01/22 04:46:58;;;;;;;13.45;12.75;;;;;;;;;;5081505;28;20024;-62
2024/01/22 04:49:23;;;;;;;14.07;13.27;;;;;;;;;;5067203;28;20127;-62
2024/01/22 04:51:49;;;;;;;13.38;12.68;;;;;;;;;;5077480;28;20027;-61
2024/01/22 04:54:14;;;;;;;13.73;13.02;;;;;;;;;;5071568;28;20021;-62
2024/01/22 04:56:40;;;;;;;13.43;12.73;;;;;;;;;;5077309;28;20398;-62
2024/01/22 04:59:06;;;;;;;15.30;14.40;;;;;;;;;;5071705;28;20008;-62
2024/01/22 05:01:32;;;;;;;14.23;13.52;;;;;;;;;;5075024;28;20024;-61
2024/01/22 05:03:57;;;;;;;14.45;13.75;;;;;;;;;;5073197;28;20070;-63
2024/01/22 05:06:22;;;;;;;15.38;14.52;;;;;;;;;;5068916;28;20043;-65
2024/01/22 05:08:48;;;;;;;15.15;14.32;;;;;;;;;;5071387;28;20020;-61
2024/01/22 05:11:13;;;;;;;14.43;13.73;;;;;;;;;;5072667;28;20078;-61
2024/01/22 05:13:47;;;;;;;15.23;14.43;;;;;;;;;;5068396;28;20514;-62
2024/01/22 05:16:12;;;;;;;;;;;;;;;;;;5068661;28;20033;-62
2024/01/22 05:18:37;;;;;;;14.25;13.55;;;;;;;;;;5066303;28;19921;-62
2024/01/22 05:21:02;;;;;;;14.63;13.82;;;;;;;;;;5084752;28;20116;-61
2024/01/22 05:23:28;;;;;;;14.07;13.38;;;;;;;;;;5069412;28;20031;-61
2024/01/22 05:25:54;;;;;;;13.27;12.68;;;;;;;;;;5056147;28;20028;-61
2024/01/22 05:28:20;;;;;;;13.10;12.48;;;;;;;;;;5071876;28;20017;-62
2024/01/22 05:30:45;;;;;;;13.55;12.85;;;;;;;;;;5068961;28;20375;-62
2024/01/22 05:33:12;;;;;;;14.43;13.73;;;;;;;;;;5071219;28;20031;-62
2024/01/22 05:35:38;;;;;;;16.08;15.15;;;;;;;;;;5073635;28;20029;-62
2024/01/22 05:38:03;;;;;;;13.95;13.25;;;;;;;;;;5075160;28;20115;-62
2024/01/22 05:40:28;;;;;;;14.63;13.82;;;;;;;;;;5072958;28;20056;-63
2024/01/22 05:42:54;;;;;;;14.68;13.88;;;;;;;;;;5065576;28;20017;-63
2024/01/22 05:45:19;;;;;;;15.63;14.73;;;;;;;;;;5067258;28;20458;-62
2024/01/22 05:47:45;;;;;;;14.45;13.65;;;;;;;;;;5071893;28;20025;-61
2024/01/22 05:50:10;;;;;;;15.82;14.82;;;;;;;;;;5065862;28;20020;-62
2024/01/22 05:52:36;;;;;;;14.50;13.70;;;;;;;;;;5071569;28;20510;-61
2024/01/22 05:55:01;;;;;;;13.98;13.27;;;;;;;;;;5065532;28;20065;-62
2024/01/22 05:57:27;;;;;;;14.00;13.27;;;;;;;;;;5057147;28;20036;-62
2024/01/22 05:59:53;;;;;;;13.50;12.80;;;;;;;;;;5065286;28;20024;-63
2024/01/22 06:02:18;;;;;;;14.48;13.60;;;;;;;;;;5074138;28;20024;-61
2024/01/22 06:04:44;;;;;;;13.90;13.10;;;;;;;;;;5072298;28;20040;-63
2024/01/22 06:07:09;;;;;;;13.23;12.43;;;;;;;;;;5072743;28;20484;-62
2024/01/22 06:09:34;;;;;;;10.70;10.20;;;;;;;;;;5067604;28;20220;-62
2024/01/22 06:11:59;;;;;;;10.40;9.80;;;;;;;;;;5061976;28;20063;-61
2024/01/22 06:14:25;;;;;;;11.32;10.63;;;;;;;;;;5070415;28;20025;-62
2024/01/22 06:16:50;;;;;;;10.75;10.15;;;;;;;;;;5067568;28;20043;-62
2024/01/22 06:19:16;;;;;;;9.60;9.10;;;;;;;;;;5062538;28;20043;-61
2024/01/22 06:21:41;;;;;;;9.90;9.40;;;;;;;;;;5069794;28;20086;-63
2024/01/22 06:24:08;;;;;;;9.57;9.07;;;;;;;;;;5065917;28;20028;-62
2024/01/22 06:26:33;;;;;;;9.13;8.73;;;;;;;;;;5070484;28;20032;-62
2024/01/22 06:28:59;;;;;;;9.50;9.00;;;;;;;;;;5064642;28;20025;-62
2024/01/22 06:31:24;;;;;;;9.07;8.68;;;;;;;;;;5072109;28;20035;-63
2024/01/22 06:33:50;;;;;;;9.60;9.10;;;;;;;;;;5067517;28;20115;-63
2024/01/22 06:36:15;;;;;;;10.07;9.57;;;;;;;;;;5050280;28;20017;-63
2024/01/22 06:38:41;;;;;;;9.40;8.90;;;;;;;;;;5071021;28;20021;-61
2024/01/22 06:41:12;;;;;;;9.98;9.48;;;;;;;;;;5079132;28;20027;-62
2024/01/22 06:43:38;;;;;;;9.07;8.68;;;;;;;;;;5067860;28;20045;-61
2024/01/22 06:46:03;;;;;;;10.32;9.82;;;;;;;;;;5067941;28;20029;-62
2024/01/22 06:48:28;;;;;;;9.57;9.18;;;;;;;;;;5066104;28;20020;-62
2024/01/22 06:50:54;;;;;;;10.52;10.02;;;;;;;;;;5067546;28;20453;-62
2024/01/22 06:53:19;;;;;;;9.85;9.45;;;;;;;;;;5064020;28;20016;-60
2024/01/22 06:55:44;;;;;;;10.25;9.75;;;;;;;;;;5064789;28;20368;-63
2024/01/22 06:58:10;;;;;;;10.18;9.68;;;;;;;;;;5064830;28;20052;-65
2024/01/22 07:00:36;;;;;;;10.27;9.77;;;;;;;;;;5062862;28;20111;-64
2024/01/22 07:03:02;;;;;;;10.35;9.85;;;;;;;;;;5061118;28;20009;-63
2024/01/22 07:05:27;;;;;;;11.63;11.02;;;;;;;;;;5066986;28;20044;-63
2024/01/22 07:07:53;;;;;;;10.88;10.38;;;;;;;;;;5070286;28;20028;-64
2024/01/22 07:10:19;;;;;;;10.70;10.20;;;;;;;;;;5043818;28;20051;-64
2024/01/22 07:12:44;;;;;;;10.35;9.85;;;;;;;;;;5053794;28;20502;-63
2024/01/22 07:15:12;;;;;;;10.80;10.30;;;;;;;;;;5070748;28;20051;-63
2024/01/22 07:17:37;;;;;;;10.20;9.73;;;;;;;;;;5078310;28;20103;-63
2024/01/22 07:20:03;;;;;;;10.45;9.95;;;;;;;;;;5070325;28;20107;-64
2024/01/22 07:22:28;;;;;;;10.27;9.77;;;;;;;;;;5066349;28;20394;-62
2024/01/22 07:24:54;;;;;;;11.10;10.60;;;;;;;;;;5063200;28;20410;-62
2024/01/22 07:27:19;;;;;;;11.57;11.00;;;;;;;;;;5068746;28;20383;-63
2024/01/22 07:29:44;;;;;;;11.27;10.77;;;;;;;;;;5072194;28;20029;-63
2024/01/22 07:32:10;;;;;;;11.48;10.98;;;;;;;;;;5068749;28;20024;-63
2024/01/22 07:34:35;;;;;;;10.90;10.40;;;;;;;;;;5071074;28;20029;-63
2024/01/22 07:37:00;;;;;;;10.75;10.25;;;;;;;;;;5073012;28;20074;-63
2024/01/22 07:39:26;;;;;;;11.00;10.50;;;;;;;;;;5076112;28;20031;-63
2024/01/22 07:41:51;;;;;;;11.20;10.70;;;;;;;;;;5067177;28;20028;-62
2024/01/22 07:44:17;;;;;;;11.40;10.90;;;;;;;;;;5071384;28;20077;-63
2024/01/22 07:46:42;;;;;;;11.15;10.65;;;;;;;;;;5061462;28;20036;-63
2024/01/22 07:49:07;;;;;;;11.35;10.85;;;;;;;;;;5060836;28;20021;-62
2024/01/22 07:51:33;;;;;;;12.20;11.60;;;;;;;;;;5060645;28;20024;-62
2024/01/22 07:53:59;;;;;;;11.50;11.00;;;;;;;;;;5067794;28;20078;-62
2024/01/22 07:56:24;;;;;;;11.20;10.70;;;;;;;;;;5068194;28;20025;-62
2024/01/22 07:58:49;;;;;;;11.75;11.25;;;;;;;;;;5064546;28;20105;-63
2024/01/22 08:01:15;;;;;;;12.25;11.65;;;;;;;;;;5066788;28;20750;-70
2024/01/22 08:03:41;;;;;;;11.63;11.13;;;;;;;;;;5039284;28;20391;-64
2024/01/22 08:06:06;;;;;;;11.52;11.02;;;;;;;;;;5060703;28;20032;-65
2024/01/22 08:08:31;;;;;;;11.50;11.00;;;;;;;;;;5065034;28;20077;-66
2024/01/22 08:10:57;;;;;;;11.95;11.45;;;;;;;;;;5062301;28;20013;-65
2024/01/22 08:13:22;;;;;;;11.70;11.20;;;;;;;;;;5060066;28;20025;-65
2024/01/22 08:15:48;;;;;;;11.77;11.27;;;;;;;;;;5047290;28;20031;-65
2024/01/22 08:18:13;;;;;;;11.90;11.40;;;;;;;;;;5053980;28;20051;-65
2024/01/22 08:20:39;;;;;;;12.55;11.95;;;;;;;;;;5069258;28;20487;-65
2024/01/22 08:23:05;;;;;;;12.20;11.70;;;;;;;;;;5067737;28;20012;-65
2024/01/22 08:25:30;;;;;;;12.02;11.52;;;;;;;;;;5069531;28;20088;-64
2024/01/22 08:27:55;;;;;;;11.95;11.45;;;;;;;;;;5063090;28;20038;-64
2024/01/22 08:30:21;;;;;;;12.60;12.00;;;;;;;;;;5068794;28;20029;-63
2024/01/22 08:32:47;;;;;;;12.38;11.80;;;;;;;;;;5071513;28;20024;-64
2024/01/22 08:35:13;;;;;;;12.10;11.60;;;;;;;;;;5075191;28;20024;-65
2024/01/22 08:37:39;;;;;;;12.20;11.70;;;;;;;;;;5068792;28;20036;-64
2024/01/22 08:40:05;;;;;;;12.40;11.80;;;;;;;;;;5070578;28;20020;-64
2024/01/22 08:42:31;;;;;;;12.52;11.93;;;;;;;;;;5051549;28;20047;-63
2024/01/22 08:44:57;;;;;;;11.95;11.45;;;;;;;;;;5077470;28;20090;-64
2024/01/22 08:47:22;;;;;;;12.32;11.73;;;;;;;;;;5061436;28;20426;-63
2024/01/22 08:49:47;;;;;;;12.00;11.50;;;;;;;;;;5065627;28;20479;-64
2024/01/22 08:52:13;;;;;;;12.18;11.63;;;;;;;;;;5062306;28;20032;-62
2024/01/22 08:54:39;;;;;;;12.38;11.77;;;;;;;;;;5046960;28;20029;-64
2024/01/22 08:57:04;;;;;;;11.75;11.25;;;;;;;;;;5067519;28;20479;-66
2024/01/22 08:59:29;;;;;;;11.90;11.40;;;;;;;;;;5062255;28;20029;-64
2024/01/22 09:01:54;;;;;;;12.90;12.30;;;;;;;;;;5069005;28;20020;-65
2024/01/22 09:04:20;;;;;;;12.45;11.85;;;;;;;;;;5073594;28;20082;-66
2024/01/22 09:06:45;;;;;;;12.02;11.52;;;;;;;;;;5070346;28;20503;-65
2024/01/22 09:09:10;;;;;;;11.40;10.90;;;;;;;;;;5067078;28;20033;-65
2024/01/22 09:11:35;;;;;;;12.20;11.60;;;;;;;;;;5069392;28;20062;-65
2024/01/22 09:14:01;;;;;;;11.52;11.02;;;;;;;;;;5067334;28;20029;-65
2024/01/22 09:16:27;;;;;;;11.80;11.30;;;;;;;;;;5065667;28;20036;-64
2024/01/22 09:18:52;;;;;;;12.18;11.57;;;;;;;;;;5048945;28;20025;-65
2024/01/22 09:21:17;;;;;;;11.50;11.00;;;;;;;;;;5069081;28;20051;-64
2024/01/22 09:23:42;;;;;;;12.05;11.50;;;;;;;;;;5064263;28;20021;-64
2024/01/22 09:26:08;;;;;;;12.30;11.70;;;;;;;;;;5069984;28;20054;-65
2024/01/22 09:28:33;;;;;;;13.13;12.52;;;;;;;;;;5069702;28;20023;-65
2024/01/22 09:30:59;;;;;;;12.60;12.00;;;;;;;;;;5062742;28;20483;-64
2024/01/22 09:33:25;;;;;;;12.30;11.70;;;;;;;;;;5069478;28;20091;-65
2024/01/22 09:35:51;;;;;;;12.77;12.18;;;;;;;;;;5045185;28;20024;-64
2024/01/22 09:38:17;;;;;;;12.40;11.80;;;;;;;;;;5051216;28;20561;-64
2024/01/22 09:40:42;;;;;;;12.05;11.48;;;;;;;;;;5063165;28;20028;-64
2024/01/22 09:43:07;;;;;;;11.82;11.32;;;;;;;;;;5069474;28;20122;-67
2024/01/22 09:45:33;;;;;;;13.00;12.40;;;;;;;;;;5053015;28;20501;-65
2024/01/22 09:47:59;;;;;;;12.43;11.82;;;;;;;;;;5071402;28;20416;-65
2024/01/22 09:50:25;;;;;;;13.18;12.57;;;;;;;;;;5067717;28;20028;-65
2024/01/22 09:52:51;;;;;;;13.55;12.85;;;;;;;;;;5053064;28;20063;-64
2024/01/22 09:55:17;;;;;;;13.60;12.90;;;;;;;;;;5066748;28;20086;-64
2024/01/22 09:57:44;;;;;;;13.75;13.05;;;;;;;;;;5043481;28;20029;-65
2024/01/22 10:00:11;;;;;;;14.30;13.50;;;;;;;;;;5069764;28;20021;-64
2024/01/22 10:02:36;;;;;;;13.02;12.32;;;;;;;;;;5068794;28;20024;-66
2024/01/22 10:05:02;;;;;;;12.68;12.07;;;;;;;;;;5077830;28;20048;-65
2024/01/22 10:07:27;;;;;;;12.45;11.85;;;;;;;;;;5077008;28;20028;-66
2024/01/22 10:09:53;;;;;;;12.20;11.60;;;;;;;;;;5078270;28;20107;-64
2024/01/22 10:12:19;;;;;;;12.25;11.65;;;;;;;;;;5074518;28;20107;-64
2024/01/22 10:14:45;;;;;;;11.30;10.80;;;;;;;;;;5069332;28;20052;-65
2024/01/22 10:17:21;;;;;;;11.18;10.68;;;;;;;;;;5072259;28;20039;-64
2024/01/22 10:19:47;;;;;;;11.10;10.60;;;;;;;;;;5061092;28;20544;-66
2024/01/22 10:22:13;;;;;;;11.80;11.20;;;;;;;;;;5060612;28;20032;-64
2024/01/22 10:24:39;;;;;;;11.07;10.57;;;;;;;;;;5071110;28;20024;-65
2024/01/22 10:27:14;;;;;;;11.07;10.57;;;;;;;;;;5072999;28;20024;-66
2024/01/22 10:29:40;;;;;;;11.65;11.05;;;;;;;;;;5059867;28;20077;-66
2024/01/22 10:32:05;;;;;;;10.80;10.30;;;;;;;;;;5064656;28;20601;-68
2024/01/22 10:34:41;;;;;;;11.20;10.65;;;;;;;;;;5071975;28;20028;-68
2024/01/22 10:37:06;;;;;;;11.60;11.00;;;;;;;;;;5069998;28;20028;-64
2024/01/22 10:39:32;;;;;;;11.48;10.88;;;;;;;;;;5066054;28;20031;-65
2024/01/22 10:42:07;;;;;;;13.75;12.95;;;;;;;;;;5060937;28;20134;-65
2024/01/22 10:44:33;;;;;;;11.65;11.05;;;;;;;;;;5061791;28;20025;-65
2024/01/22 10:47:01;;;;;;;11.73;11.13;;;;;;;;;;5053675;28;20032;-65
2024/01/22 10:49:27;;;;;;;11.40;10.80;;;;;;;;;;5071160;28;20048;-66
2024/01/22 10:51:53;;;;;;;11.30;10.73;;;;;;;;;;5064981;28;20032;-65
2024/01/22 10:54:18;;;;;;;11.30;10.70;;;;;;;;;;5069096;28;21064;-66
2024/01/22 10:56:48;;;;;;;12.18;11.50;;;;;;;;;;5050801;28;20056;-66
2024/01/22 10:59:17;;;;;;;12.77;12.07;;;;;;;;;;5053640;28;20575;-65
2024/01/22 11:01:43;;;;;;;12.27;11.57;;;;;;;;;;5054896;28;20029;-67
2024/01/22 11:04:10;;;;;;;12.23;11.55;;;;;;;;;;5052483;28;20113;-65
2024/01/22 11:06:38;;;;;;;12.20;11.50;;;;;;;;;;5051545;28;20052;-65
2024/01/22 11:09:05;;;;;;;12.25;11.55;;;;;;;;;;5052432;28;20084;-65
2024/01/22 11:11:33;;;;;;;12.63;11.93;;;;;;;;;;5053509;28;20167;-65
2024/01/22 11:13:59;;;;;;;12.02;11.43;;;;;;;;;;5061404;28;20073;-64
2024/01/22 11:16:24;;;;;;;12.88;12.18;;;;;;;;;;5065096;28;20525;-64
2024/01/22 11:19:00;;;;;;;11.57;10.98;;;;;;;;;;5051764;28;20602;-65
2024/01/22 11:21:33;;;;;;;11.75;11.15;;;;;;;;;;5054715;28;20475;-64
2024/01/22 11:24:19;;;;;;;11.65;11.05;;;;;;;;;;5056208;28;20025;-66
2024/01/22 11:27:00;;;;;;;12.07;11.40;;;;;;;;;;5051262;28;20090;-64
2024/01/22 11:29:26;;;;;;;12.07;11.38;;;;;;;;;;5054203;28;20035;-64
2024/01/22 11:31:52;;;;;;;11.85;11.25;;;;;;;;;;5040676;28;20035;-65
2024/01/22 11:34:44;;;;;;;11.02;10.50;;;;;;;;;;5060607;28;20033;-65
2024/01/22 11:37:11;;;;;;;12.27;11.57;;;;;;;;;;5057107;28;20040;-65
2024/01/22 11:39:39;;;;;;;10.90;10.40;;;;;;;;;;5051970;28;20052;-64
2024/01/22 11:42:17;;;;;;;12.98;12.25;;;;;;;;;;5052070;28;20482;-65
2024/01/22 11:44:46;;;;;;;11.23;10.63;;;;;;;;;;5052011;28;20035;-66
2024/01/22 11:47:11;;;;;;;11.52;10.93;;;;;;;;;;5067774;28;20055;-64
2024/01/22 11:49:36;;;;;;;11.60;11.00;;;;;;;;;;5073773;28;20028;-65
2024/01/22 11:52:11;;;;;;;11.88;11.27;;;;;;;;;;5080833;28;20456;-65
2024/01/22 11:54:36;;;;;;;11.55;10.95;;;;;;;;;;5057676;28;20021;-65
2024/01/22 11:57:02;;;;;;;11.32;10.73;;;;;;;;;;5081350;28;20646;-65
2024/01/22 11:59:28;;;;;;;11.63;11.02;;;;;;;;;;5077370;28;20479;-66
2024/01/22 12:02:04;;;;;;;11.77;11.18;;;;;;;;;;5077515;28;20017;-64
2024/01/22 12:04:30;;;;;;;13.20;12.40;;;;;;;;;;5076899;28;20023;-64
2024/01/22 12:06:55;;;;;;;11.63;11.02;;;;;;;;;;5075470;28;20040;-66
2024/01/22 12:09:20;;;;;;;11.30;10.70;;;;;;;;;;5072263;28;20035;-66
2024/01/22 12:11:53;;;;;;;10.60;10.10;;;;;;;;;;5054075;28;20086;-66
2024/01/22 12:14:18;;;;;;;11.77;11.15;;;;;;;;;;5071492;28;20465;-66
2024/01/22 12:16:43;;;;;;;11.10;10.50;;;;;;;;;;5054494;28;20028;-66
2024/01/22 12:19:12;;;;;;;11.00;10.45;;;;;;;;;;5070758;28;20028;-66
2024/01/22 12:21:38;;;;;;;11.05;10.55;;;;;;;;;;5073992;28;20036;-66
2024/01/22 12:24:11;;;;;;;10.65;10.15;;;;;;;;;;5080062;28;20031;-66
2024/01/22 12:26:40;;;;;;;10.82;10.32;;;;;;;;;;5078536;28;20048;-65
2024/01/22 12:29:05;;;;;;;13.35;12.55;;;;;;;;;;5065182;28;20029;-65
2024/01/22 12:31:30;;;;;;;11.60;11.00;;;;;;;;;;5048083;28;20032;-63
2024/01/22 12:34:11;;;;;;;11.32;10.73;;;;;;;;;;5069521;28;20021;-63
2024/01/22 12:36:36;;;;;;;11.98;11.35;;;;;;;;;;5057110;28;20622;-63
2024/01/22 12:39:03;;;;;;;11.02;10.50;;;;;;;;;;5048848;28;20052;-64
2024/01/22 12:41:31;;;;;;;12.32;11.63;;;;;;;;;;5061904;28;20520;-64
2024/01/22 12:43:59;;;;;;;12.60;11.90;;;;;;;;;;5059954;28;20071;-65
2024/01/22 12:46:25;;;;;;;11.18;10.57;;;;;;;;;;5067684;28;20020;-66
2024/01/22 12:48:55;;;;;;;11.23;10.63;;;;;;;;;;5062814;28;20433;-65
2024/01/22 12:51:24;;;;;;;11.90;11.30;;;;;;;;;;5063906;28;20475;-65
2024/01/22 12:53:49;;;;;;;11.80;11.20;;;;;;;;;;5064379;28;20100;-66
2024/01/22 12:56:15;;;;;;;10.60;10.10;;;;;;;;;;5062528;28;20538;-66
2024/01/22 12:58:41;;;;;;;11.77;11.18;;;;;;;;;;5063524;28;20564;-64
2024/01/22 13:01:07;;;;;;;11.25;10.65;;;;;;;;;;5064518;28;20029;-66
2024/01/22 13:03:32;;;;;;;10.60;10.10;;;;;;;;;;5069334;28;20029;-63
2024/01/22 13:05:58;;;;;;;11.55;10.95;;;;;;;;;;5048461;28;20048;-61
2024/01/22 13:08:23;;;;;;;12.68;11.98;;;;;;;;;;5061626;28;20028;-62
2024/01/22 13:10:48;;;;;;;11.30;10.70;;;;;;;;;;5066405;28;20066;-62
2024/01/22 13:13:15;;;;;;;12.40;11.70;;;;;;;;;;5066431;28;20052;-62
2024/01/22 13:15:41;;;;;;;11.65;11.05;;;;;;;;;;5073788;28;20055;-61
2024/01/22 13:18:07;;;;;;;11.60;11.00;;;;;;;;;;5081226;28;20058;-60
2024/01/22 13:20:32;;;;;;;13.07;12.32;;;;;;;;;;5065281;28;20052;-61
2024/01/22 13:22:57;;;;;;;13.20;12.40;;;;;;;;;;5071077;28;20028;-61
2024/01/22 13:25:23;;;;;;;12.10;11.40;;;;;;;;;;5075381;28;20016;-61
2024/01/22 13:27:53;;;;;;;13.80;13.00;;;;;;;;;;5086593;28;20121;-61
2024/01/22 13:30:18;;;;;;;11.25;10.65;;;;;;;;;;5068785;28;20103;-60
2024/01/22 13:32:44;;;;;;;11.60;11.00;;;;;;;;;;5075665;28;20095;-61
2024/01/22 13:35:10;;;;;;;11.43;10.82;;;;;;;;;;5079443;28;20104;-61
2024/01/22 13:37:36;;;;;;;11.27;10.68;;;;;;;;;;5065541;28;20129;-61
2024/01/22 13:40:02;;;;;;;11.10;10.50;;;;;;;;;;5061104;28;20107;-62
2024/01/22 13:42:27;;;;;;;9.95;9.55;;;;;;;;;;5082351;28;20138;-63
2024/01/22 13:44:52;;;;;;;11.75;11.15;;;;;;;;;;5078308;28;20035;-62
2024/01/22 13:47:19;;;;;;;10.57;10.07;;;;;;;;;;5072422;28;20027;-62
2024/01/22 13:49:45;;;;;;;11.63;11.02;;;;;;;;;;5074952;28;20022;-61
2024/01/22 13:52:11;;;;;;;11.82;11.23;;;;;;;;;;5073975;28;20096;-62
2024/01/22 13:54:37;;;;;;;11.90;11.30;;;;;;;;;;5073993;28;20406;-64
2024/01/22 13:57:02;;;;;;;10.85;10.35;;;;;;;;;;5068018;28;20016;-62
2024/01/22 13:59:28;;;;;;;10.50;10.00;;;;;;;;;;5074834;28;20024;-64
2024/01/22 14:01:55;;;;;;;11.75;11.15;;;;;;;;;;5082463;28;20436;-62
2024/01/22 14:04:21;;;;;;;11.68;11.07;;;;;;;;;;5066545;28;20501;-61
2024/01/22 14:06:46;;;;;;;11.90;11.30;;;;;;;;;;5071050;28;20036;-62
2024/01/22 14:09:14;;;;;;;11.27;10.68;;;;;;;;;;5038995;28;20074;-61
2024/01/22 14:11:39;;;;;;;10.82;10.32;;;;;;;;;;5058979;28;20733;-62